createdAt,value
2018-08-25T00:01:19.763Z,13.99
2018-08-25T00:03:50.219Z,13.94
2018-08-25T00:06:20.816Z,13.95
2018-08-25T00:08:51.287Z,14.12
2018-08-25T00:11:21.692Z,14.18
2018-08-25T00:13:51.935Z,14.27
2018-08-25T00:16:22.340Z,14.27
2018-08-25T00:18:52.690Z,14.35
2018-08-25T00:21:23.003Z,14.38
2018-08-25T00:23:53.331Z,14.42
2018-08-25T00:26:23.727Z,14.44
2018-08-25T00:28:54.215Z,14.43
2018-08-25T00:31:25.390Z,14.50
2018-08-25T00:33:56.517Z,14.54
2018-08-25T00:36:26.777Z,14.46
2018-08-25T00:38:58.282Z,14.49
2018-08-25T00:41:28.790Z,14.43
2018-08-25T00:43:59.230Z,14.49
2018-08-25T00:46:29.547Z,14.51
2018-08-25T00:49:00.137Z,14.51
2018-08-25T00:51:30.746Z,14.47
2018-08-25T00:54:01.275Z,14.52
2018-08-25T00:56:31.699Z,14.54
2018-08-25T00:59:02.046Z,14.57
2018-08-25T01:01:32.561Z,14.58
2018-08-25T01:04:03.027Z,14.58
2018-08-25T01:06:33.591Z,14.60
2018-08-25T01:09:05.257Z,14.66
2018-08-25T01:11:35.559Z,14.57
2018-08-25T01:14:05.990Z,14.68
2018-08-25T01:16:36.547Z,14.63
2018-08-25T01:19:07.660Z,14.60
2018-08-25T01:21:38.148Z,14.58
2018-08-25T01:24:08.607Z,14.62
2018-08-25T01:26:39.291Z,14.63
2018-08-25T01:29:12.905Z,14.50
2018-08-25T01:31:43.245Z,14.61
2018-08-25T01:34:13.769Z,14.63
2018-08-25T01:36:43.988Z,14.67
2018-08-25T01:39:14.451Z,14.53
2018-08-25T01:41:44.937Z,14.55
2018-08-25T01:44:15.435Z,14.54
2018-08-25T01:46:45.940Z,14.57
2018-08-25T01:49:16.283Z,14.59
2018-08-25T01:51:46.680Z,14.58
2018-08-25T01:54:17.136Z,14.54
2018-08-25T01:56:47.815Z,14.53
2018-08-25T01:59:18.503Z,14.39
2018-08-25T02:01:48.816Z,14.50
2018-08-25T02:04:19.154Z,14.55
2018-08-25T02:06:49.655Z,14.48
2018-08-25T02:09:20.159Z,14.50
2018-08-25T02:11:50.664Z,14.51
2018-08-25T02:14:20.843Z,14.47
2018-08-25T02:16:51.295Z,14.46
2018-08-25T02:19:21.795Z,14.48
2018-08-25T02:21:52.402Z,14.43
2018-08-25T02:24:22.906Z,14.42
2018-08-25T02:26:53.111Z,14.49
2018-08-25T02:29:23.359Z,14.56
2018-08-25T02:31:53.810Z,14.48
2018-08-25T02:34:24.220Z,14.50
2018-08-25T02:36:54.449Z,14.57
2018-08-25T02:39:24.896Z,14.61
2018-08-25T02:41:55.311Z,14.63
2018-08-25T02:44:25.755Z,14.63
2018-08-25T02:46:56.756Z,14.55
2018-08-25T02:49:27.384Z,14.58
2018-08-25T02:51:57.847Z,14.52
2018-08-25T02:54:29.127Z,14.46
2018-08-25T02:56:59.496Z,14.41
2018-08-25T02:59:29.882Z,14.50
2018-08-25T03:02:00.485Z,14.36
2018-08-25T03:04:30.722Z,14.46
2018-08-25T03:07:01.009Z,14.39
2018-08-25T03:09:31.507Z,14.31
2018-08-25T03:12:01.797Z,14.33
2018-08-25T03:14:32.192Z,14.36
2018-08-25T03:17:02.557Z,14.23
2018-08-25T03:19:33.019Z,14.24
2018-08-25T03:22:03.829Z,14.29
2018-08-25T03:24:34.382Z,14.35
2018-08-25T03:27:04.988Z,14.36
2018-08-25T03:29:35.348Z,14.47
2018-08-25T03:32:05.763Z,14.33
2018-08-25T03:34:36.156Z,14.31
2018-08-25T03:37:06.656Z,14.23
2018-08-25T03:39:37.176Z,14.13
2018-08-25T03:42:07.728Z,14.11
2018-08-25T03:44:38.011Z,14.17
2018-08-25T03:47:08.342Z,14.18
2018-08-25T03:49:38.769Z,14.11
2018-08-25T03:52:09.113Z,14.20
2018-08-25T03:54:39.463Z,14.14
2018-08-25T03:57:09.859Z,14.12
2018-08-25T03:59:40.304Z,14.17
2018-08-25T04:02:10.607Z,14.02
2018-08-25T04:04:41.772Z,14.05
2018-08-25T04:07:12.090Z,14.04
2018-08-25T04:09:42.573Z,14.11
2018-08-25T04:12:12.851Z,14.09
2018-08-25T04:14:43.493Z,14.08
2018-08-25T04:17:13.704Z,14.06
2018-08-25T04:19:44.273Z,14.18
2018-08-25T04:22:14.709Z,14.09
2018-08-25T04:24:45.000Z,14.06
2018-08-25T04:27:15.320Z,14.04
2018-08-25T04:29:45.802Z,14.01
2018-08-25T04:32:16.191Z,14.10
2018-08-25T04:34:46.608Z,13.98
2018-08-25T04:37:16.949Z,14.05
2018-08-25T04:39:47.554Z,14.06
2018-08-25T04:42:17.917Z,14.23
2018-08-25T04:44:48.322Z,14.23
2018-08-25T04:47:18.563Z,14.23
2018-08-25T04:49:49.015Z,14.33
2018-08-25T04:52:19.484Z,14.44
2018-08-25T04:54:50.043Z,14.38
2018-08-25T04:57:20.531Z,14.48
2018-08-25T04:59:50.993Z,14.57
2018-08-25T05:02:21.238Z,14.61
2018-08-25T05:04:52.199Z,14.63
2018-08-25T05:07:22.601Z,14.64
2018-08-25T05:09:53.188Z,14.55
2018-08-25T05:12:23.508Z,14.68
2018-08-25T05:14:53.884Z,14.65
2018-08-25T05:17:24.204Z,14.74
2018-08-25T05:19:54.596Z,14.73
2018-08-25T05:22:24.979Z,14.67
2018-08-25T05:24:55.530Z,14.73
2018-08-25T05:27:25.977Z,14.81
2018-08-25T05:29:56.295Z,14.73
2018-08-25T05:32:26.607Z,14.78
2018-08-25T05:34:57.196Z,14.66
2018-08-25T05:37:27.644Z,14.70
2018-08-25T05:39:58.114Z,14.77
2018-08-25T05:42:28.617Z,14.81
2018-08-25T05:44:59.040Z,14.80
2018-08-25T05:47:29.547Z,14.74
2018-08-25T05:49:59.912Z,14.70
2018-08-25T05:52:30.401Z,14.71
2018-08-25T05:55:00.869Z,14.68
2018-08-25T05:57:31.465Z,14.80
2018-08-25T06:00:02.070Z,14.88
2018-08-25T06:02:32.521Z,14.88
2018-08-25T06:05:02.888Z,14.93
2018-08-25T06:07:33.249Z,14.86
2018-08-25T06:10:03.762Z,14.96
2018-08-25T06:12:34.840Z,14.94
2018-08-25T06:15:05.319Z,14.91
2018-08-25T06:17:35.827Z,15.02
2018-08-25T06:20:06.525Z,15.06
2018-08-25T06:22:37.080Z,15.04
2018-08-25T06:25:09.201Z,15.15
2018-08-25T06:27:45.468Z,15.10
2018-08-25T06:30:15.995Z,15.15
2018-08-25T06:32:46.456Z,15.19
2018-08-25T06:35:16.937Z,15.25
2018-08-25T06:37:47.464Z,15.40
2018-08-25T06:40:18.435Z,15.61
2018-08-25T06:42:49.029Z,15.71
2018-08-25T06:45:19.427Z,15.99
2018-08-25T06:47:49.756Z,16.09
2018-08-25T06:50:20.218Z,16.06
2018-08-25T06:52:50.549Z,16.21
2018-08-25T06:55:20.973Z,16.10
2018-08-25T06:57:51.265Z,16.02
2018-08-25T07:00:21.868Z,16.06
2018-08-25T07:02:52.361Z,15.82
2018-08-25T07:05:22.763Z,15.90
2018-08-25T07:07:53.132Z,15.84
2018-08-25T07:10:23.496Z,15.86
2018-08-25T07:12:53.927Z,15.76
2018-08-25T07:15:24.366Z,15.79
2018-08-25T07:17:54.752Z,15.74
2018-08-25T07:20:25.112Z,15.87
2018-08-25T07:22:55.411Z,15.82
2018-08-25T07:25:25.978Z,15.79
2018-08-25T07:27:56.539Z,15.82
2018-08-25T07:30:26.971Z,15.71
2018-08-25T07:32:57.206Z,15.88
2018-08-25T07:35:27.592Z,15.86
2018-08-25T07:37:58.203Z,15.73
2018-08-25T07:40:28.605Z,15.66
2018-08-25T07:42:59.402Z,15.86
2018-08-25T07:45:29.720Z,15.86
2018-08-25T07:48:00.133Z,15.52
2018-08-25T07:50:30.563Z,15.43
2018-08-25T07:53:01.041Z,15.46
2018-08-25T07:55:31.551Z,15.47
2018-08-25T07:58:02.116Z,15.38
2018-08-25T08:00:32.882Z,15.24
2018-08-25T08:03:03.250Z,15.33
2018-08-25T08:05:33.467Z,15.47
2018-08-25T08:08:03.924Z,15.50
2018-08-25T08:10:34.380Z,15.54
2018-08-25T08:13:05.008Z,15.66
2018-08-25T08:15:35.701Z,15.87
2018-08-25T08:18:06.228Z,15.90
2018-08-25T08:20:36.633Z,15.93
2018-08-25T08:23:35.901Z,16.13
2018-08-25T08:26:06.780Z,16.16
2018-08-25T08:28:37.123Z,16.33
2018-08-25T08:31:07.580Z,16.66
2018-08-25T08:33:37.939Z,16.69
2018-08-25T08:36:08.427Z,16.86
2018-08-25T08:38:40.164Z,16.87
2018-08-25T08:41:10.496Z,16.84
2018-08-25T08:43:40.782Z,16.52
2018-08-25T08:46:11.357Z,16.55
2018-08-25T08:48:41.896Z,16.45
2018-08-25T08:51:12.482Z,16.45
2018-08-25T08:53:42.963Z,16.41
2018-08-25T08:56:13.407Z,16.38
2018-08-25T08:58:43.773Z,16.49
2018-08-25T09:01:14.176Z,16.30
2018-08-25T09:03:44.884Z,16.38
2018-08-25T09:06:15.349Z,16.34
2018-08-25T09:08:45.723Z,16.30
2018-08-25T09:11:16.115Z,16.14
2018-08-25T09:13:46.470Z,16.35
2018-08-25T09:16:16.829Z,16.45
2018-08-25T09:18:47.165Z,16.87
2018-08-25T09:21:17.408Z,17.71
2018-08-25T09:23:48.173Z,18.33
2018-08-25T09:26:18.647Z,18.61
2018-08-25T09:28:48.976Z,18.74
2018-08-25T09:31:19.436Z,18.52
2018-08-25T09:33:50.087Z,19.61
2018-08-25T09:36:21.225Z,19.16
2018-08-25T09:38:51.992Z,19.28
2018-08-25T09:41:22.661Z,19.09
2018-08-25T09:43:53.188Z,18.63
2018-08-25T09:46:23.543Z,18.07
2018-08-25T09:48:53.836Z,18.13
2018-08-25T09:51:24.223Z,18.86
2018-08-25T09:53:54.832Z,18.77
2018-08-25T09:56:25.296Z,18.60
2018-08-25T09:58:56.025Z,19.90
2018-08-25T10:01:32.825Z,20.79
2018-08-25T10:04:03.449Z,21.07
2018-08-25T10:06:34.024Z,20.53
2018-08-25T10:09:05.260Z,20.50
2018-08-25T10:11:35.864Z,19.97
2018-08-25T10:14:06.860Z,20.33
2018-08-25T10:16:37.281Z,19.74
2018-08-25T10:19:07.829Z,19.53
2018-08-25T10:21:38.120Z,20.76
2018-08-25T10:24:08.619Z,20.75
2018-08-25T10:26:39.061Z,20.44
2018-08-25T10:29:09.600Z,20.07
2018-08-25T10:31:40.072Z,20.43
2018-08-25T10:34:10.597Z,20.23
2018-08-25T10:36:41.057Z,20.29
2018-08-25T10:39:12.857Z,20.32
2018-08-25T10:41:43.531Z,19.83
2018-08-25T10:44:14.007Z,19.27
2018-08-25T10:46:44.883Z,19.30
2018-08-25T10:49:15.361Z,19.93
2018-08-25T10:51:45.977Z,19.97
2018-08-25T10:54:16.471Z,19.50
2018-08-25T10:56:46.843Z,20.24
2018-08-25T10:59:17.176Z,20.35
2018-08-25T11:01:47.716Z,20.16
2018-08-25T11:04:18.030Z,20.35
2018-08-25T11:06:48.295Z,20.26
2018-08-25T11:09:18.711Z,20.63
2018-08-25T11:11:49.224Z,20.89
2018-08-25T11:14:20.468Z,21.13
2018-08-25T11:16:50.880Z,21.31
2018-08-25T11:19:21.435Z,21.57
2018-08-25T11:21:51.859Z,21.91
2018-08-25T11:24:22.256Z,21.72
2018-08-25T11:26:52.617Z,22.04
2018-08-25T11:29:23.120Z,21.33
2018-08-25T11:31:53.548Z,20.80
2018-08-25T11:34:24.075Z,20.23
2018-08-25T11:36:54.627Z,19.75
2018-08-25T11:39:25.087Z,19.11
2018-08-25T11:41:55.296Z,18.98
2018-08-25T11:44:25.767Z,18.78
2018-08-25T11:46:56.136Z,17.10
2018-08-25T11:49:26.557Z,16.37
2018-08-25T11:51:56.808Z,15.86
2018-08-25T11:54:27.471Z,15.65
2018-08-25T11:56:57.853Z,15.41
2018-08-25T11:59:28.253Z,15.04
2018-08-25T12:01:58.756Z,14.68
2018-08-25T12:04:29.021Z,15.00
2018-08-25T12:06:59.503Z,15.08
2018-08-25T12:09:30.001Z,15.28
2018-08-25T12:12:00.457Z,15.47
2018-08-25T12:14:30.771Z,15.61
2018-08-25T12:17:01.315Z,15.50
2018-08-25T12:19:31.904Z,15.61
2018-08-25T12:22:02.375Z,15.80
2018-08-25T12:24:32.943Z,16.06
2018-08-25T12:27:04.008Z,15.96
2018-08-25T12:29:34.656Z,15.89
2018-08-25T12:32:05.041Z,16.21
2018-08-25T12:34:35.303Z,16.50
2018-08-25T12:37:05.922Z,16.68
2018-08-25T12:39:36.280Z,16.70
2018-08-25T12:42:06.894Z,16.96
2018-08-25T12:44:37.316Z,17.41
2018-08-25T12:47:07.719Z,18.29
2018-08-25T12:49:38.128Z,18.38
2018-08-25T12:52:08.785Z,18.81
2018-08-25T12:54:39.330Z,18.47
2018-08-25T12:57:09.727Z,18.69
2018-08-25T12:59:39.968Z,18.44
2018-08-25T13:02:10.439Z,18.09
2018-08-25T13:04:42.295Z,17.63
2018-08-25T13:07:13.804Z,16.92
2018-08-25T13:09:45.154Z,16.63
2018-08-25T13:12:15.484Z,16.65
2018-08-25T13:14:45.783Z,16.43
2018-08-25T13:17:16.035Z,16.83
2018-08-25T13:19:46.418Z,17.06
2018-08-25T13:22:16.869Z,17.44
2018-08-25T13:24:47.671Z,17.12
2018-08-25T13:27:18.103Z,17.10
2018-08-25T13:29:48.633Z,16.94
2018-08-25T13:32:19.099Z,17.14
2018-08-25T13:34:49.335Z,17.34
2018-08-25T13:37:19.843Z,17.69
2018-08-25T13:39:50.257Z,17.78
2018-08-25T13:42:20.627Z,18.32
2018-08-25T13:44:50.972Z,19.07
2018-08-25T13:47:21.476Z,19.23
2018-08-25T13:49:51.964Z,18.79
2018-08-25T13:52:22.436Z,18.63
2018-08-25T13:54:53.940Z,18.54
2018-08-25T13:57:24.400Z,18.03
2018-08-25T13:59:54.689Z,17.85
2018-08-25T14:02:25.295Z,17.72
2018-08-25T14:04:55.914Z,17.65
2018-08-25T14:07:26.238Z,17.62
2018-08-25T14:09:56.624Z,17.70
2018-08-25T14:12:27.496Z,17.93
2018-08-25T14:14:57.907Z,18.53
2018-08-25T14:17:28.348Z,18.95
2018-08-25T14:19:58.704Z,18.96
2018-08-25T14:22:29.092Z,18.53
2018-08-25T14:24:59.626Z,18.38
2018-08-25T14:27:30.034Z,18.17
2018-08-25T14:30:00.548Z,18.18
2018-08-25T14:32:31.057Z,18.39
2018-08-25T14:35:01.619Z,18.38
2018-08-25T14:37:32.204Z,18.75
2018-08-25T14:40:02.456Z,18.50
2018-08-25T14:42:32.831Z,18.25
2018-08-25T14:45:03.387Z,18.21
2018-08-25T14:47:33.912Z,18.25
2018-08-25T14:50:04.636Z,18.55
2018-08-25T14:52:34.971Z,18.17
2018-08-25T14:55:05.778Z,18.32
2018-08-25T14:57:36.140Z,18.44
2018-08-25T15:00:06.695Z,18.90
2018-08-25T15:02:37.136Z,18.87
2018-08-25T15:05:08.672Z,18.77
2018-08-25T15:07:38.946Z,19.12
2018-08-25T15:10:09.435Z,19.63
2018-08-25T15:12:39.862Z,19.76
2018-08-25T15:15:10.488Z,19.25
2018-08-25T15:17:40.868Z,18.90
2018-08-25T15:20:11.292Z,18.75
2018-08-25T15:22:41.871Z,18.50
2018-08-25T15:25:12.474Z,18.38
2018-08-25T15:27:42.984Z,18.02
2018-08-25T15:30:13.524Z,17.87
2018-08-25T15:32:43.935Z,17.72
2018-08-25T15:35:14.396Z,17.59
2018-08-25T15:37:44.856Z,17.24
2018-08-25T15:40:15.402Z,16.60
2018-08-25T15:42:45.863Z,16.08
2018-08-25T15:45:16.424Z,15.52
2018-08-25T15:47:46.826Z,15.34
2018-08-25T15:50:17.196Z,15.18
2018-08-25T15:52:47.766Z,15.38
2018-08-25T15:55:18.338Z,15.58
2018-08-25T15:57:48.836Z,15.77
2018-08-25T16:00:19.248Z,15.90
2018-08-25T16:02:49.797Z,15.83
2018-08-25T16:05:20.244Z,15.82
2018-08-25T16:07:50.620Z,15.85
2018-08-25T16:10:21.307Z,15.82
2018-08-25T16:12:51.663Z,15.63
2018-08-25T16:15:22.212Z,15.76
2018-08-25T16:17:52.756Z,16.10
2018-08-25T16:20:23.139Z,16.18
2018-08-25T16:22:53.471Z,16.35
2018-08-25T16:25:23.892Z,16.29
2018-08-25T16:27:54.355Z,16.30
2018-08-25T16:30:24.793Z,16.09
2018-08-25T16:32:55.282Z,15.87
2018-08-25T16:35:25.632Z,15.63
2018-08-25T16:37:56.057Z,15.57
2018-08-25T16:40:26.555Z,15.55
2018-08-25T16:42:57.028Z,15.48
2018-08-25T16:45:27.386Z,15.45
2018-08-25T16:47:57.775Z,15.44
2018-08-25T16:50:28.113Z,15.43
2018-08-25T16:52:58.431Z,15.75
2018-08-25T16:55:29.624Z,15.79
2018-08-25T16:58:00.021Z,15.87
2018-08-25T17:00:30.502Z,15.99
2018-08-25T17:03:00.973Z,15.90
2018-08-25T17:05:31.228Z,15.87
2018-08-25T17:08:01.420Z,15.87
2018-08-25T17:10:31.865Z,15.72
2018-08-25T17:13:02.183Z,15.72
2018-08-25T17:15:32.453Z,15.59
2018-08-25T17:18:03.041Z,15.59
2018-08-25T17:20:33.539Z,15.70
2018-08-25T17:23:03.807Z,15.57
2018-08-25T17:25:33.995Z,15.54
2018-08-25T17:28:04.473Z,15.59
2018-08-25T17:30:34.785Z,15.47
2018-08-25T17:33:05.221Z,15.48
2018-08-25T17:35:35.803Z,15.44
2018-08-25T17:38:06.661Z,15.44
2018-08-25T17:40:36.924Z,15.34
2018-08-25T17:43:07.498Z,15.32
2018-08-25T17:45:38.068Z,15.28
2018-08-25T17:48:08.626Z,15.21
2018-08-25T17:50:39.077Z,15.07
2018-08-25T17:53:09.596Z,15.15
2018-08-25T17:55:40.449Z,15.12
2018-08-25T17:58:10.712Z,15.01
2018-08-25T18:00:41.200Z,15.00
2018-08-25T18:03:11.925Z,14.98
2018-08-25T18:06:08.245Z,14.79
2018-08-25T18:08:38.705Z,14.72
2018-08-25T18:11:09.039Z,14.59
2018-08-25T18:13:39.443Z,14.37
2018-08-25T18:16:09.834Z,14.54
2018-08-25T18:18:40.440Z,14.33
2018-08-25T18:21:11.031Z,14.17
2018-08-25T18:23:41.394Z,14.04
2018-08-25T18:26:11.739Z,14.09
2018-08-25T18:28:44.999Z,14.01
2018-08-25T18:31:15.444Z,13.99
2018-08-25T18:33:46.009Z,13.83
2018-08-25T18:36:16.580Z,14.03
2018-08-25T18:38:52.465Z,13.96
2018-08-25T18:41:22.833Z,13.94
2018-08-25T18:43:53.524Z,13.95
2018-08-25T18:46:24.584Z,13.89
2018-08-25T18:48:55.047Z,13.71
2018-08-25T18:51:25.760Z,13.77
2018-08-25T18:53:56.389Z,13.66
2018-08-25T18:56:26.935Z,13.62
2018-08-25T18:58:57.440Z,13.50
2018-08-25T19:01:27.895Z,13.47
2018-08-25T19:03:58.320Z,13.42
2018-08-25T19:06:28.775Z,13.43
2018-08-25T19:08:59.359Z,13.35
2018-08-25T19:11:29.805Z,13.25
2018-08-25T19:14:00.441Z,13.17
2018-08-25T19:16:30.895Z,13.10
2018-08-25T19:19:01.580Z,13.04
2018-08-25T19:21:32.141Z,13.01
2018-08-25T19:24:02.718Z,12.98
2018-08-25T19:26:33.315Z,12.91
2018-08-25T19:29:03.957Z,12.87
2018-08-25T19:31:34.387Z,12.93
2018-08-25T19:34:04.880Z,12.98
2018-08-25T19:36:35.448Z,13.12
2018-08-25T19:39:08.700Z,13.03
2018-08-25T19:41:39.254Z,13.05
2018-08-25T19:44:09.349Z,13.01
2018-08-25T19:46:39.396Z,13.02
2018-08-25T19:49:09.597Z,12.98
2018-08-25T19:51:39.675Z,12.92
2018-08-25T19:54:09.964Z,12.76
2018-08-25T19:56:40.413Z,12.82
2018-08-25T19:59:11.053Z,12.79
2018-08-25T20:01:41.785Z,12.76
2018-08-25T20:04:12.600Z,12.68
2018-08-25T20:06:43.179Z,12.59
2018-08-25T20:09:13.693Z,12.61
2018-08-25T20:11:44.242Z,12.83
2018-08-25T20:14:14.536Z,12.63
2018-08-25T20:16:44.912Z,12.59
2018-08-25T20:19:15.514Z,12.48
2018-08-25T20:21:46.043Z,12.62
2018-08-25T20:24:16.472Z,12.56
2018-08-25T20:26:47.035Z,12.51
2018-08-25T20:29:17.568Z,12.42
2018-08-25T20:31:48.077Z,12.53
2018-08-25T20:34:18.531Z,12.45
2018-08-25T20:36:49.031Z,12.43
2018-08-25T20:39:19.510Z,12.42
2018-08-25T20:41:50.049Z,12.46
2018-08-25T20:44:21.297Z,12.48
2018-08-25T20:46:51.792Z,12.47
2018-08-25T20:49:22.306Z,12.49
2018-08-25T20:51:52.982Z,12.41
2018-08-25T20:54:24.288Z,12.50
2018-08-25T20:56:54.868Z,12.41
2018-08-25T20:59:43.314Z,12.30
2018-08-25T21:02:13.623Z,12.35
2018-08-25T21:04:44.100Z,12.23
2018-08-25T21:07:14.802Z,12.20
2018-08-25T21:09:45.219Z,12.29
2018-08-25T21:12:15.315Z,12.15
2018-08-25T21:14:45.369Z,12.10
2018-08-25T21:17:15.427Z,12.19
2018-08-25T21:19:45.511Z,12.23
2018-08-25T21:22:15.934Z,12.04
2018-08-25T21:24:46.480Z,12.01
2018-08-25T21:27:16.989Z,11.92
2018-08-25T21:29:47.201Z,11.93
2018-08-25T21:32:17.736Z,12.02
2018-08-25T21:34:48.212Z,11.86
2018-08-25T21:37:18.711Z,11.71
2018-08-25T21:39:49.362Z,11.93
2018-08-25T21:42:19.992Z,11.76
2018-08-25T21:44:50.652Z,11.81
2018-08-25T21:47:21.186Z,11.78
2018-08-25T21:49:51.470Z,11.78
2018-08-25T21:52:21.871Z,11.84
2018-08-25T21:54:52.292Z,11.84
2018-08-25T21:57:22.887Z,11.85
2018-08-25T21:59:53.264Z,11.76
2018-08-25T22:02:23.667Z,11.77
2018-08-25T22:04:54.015Z,11.84
2018-08-25T22:07:24.420Z,11.77
2018-08-25T22:09:54.908Z,11.56
2018-08-25T22:12:25.307Z,11.68
2018-08-25T22:14:55.649Z,11.55
2018-08-25T22:17:26.069Z,11.56
2018-08-25T22:19:56.532Z,11.51
2018-08-25T22:22:27.138Z,11.66
2018-08-25T22:24:57.724Z,11.69
2018-08-25T22:27:28.328Z,11.67
2018-08-25T22:29:58.787Z,11.55
2018-08-25T22:32:29.444Z,11.58
2018-08-25T22:34:59.846Z,11.57
2018-08-25T22:37:30.240Z,11.59
2018-08-25T22:40:00.576Z,11.65
2018-08-25T22:42:31.031Z,11.62
2018-08-25T22:45:01.351Z,11.52
2018-08-25T22:47:31.787Z,11.57
2018-08-25T22:50:01.989Z,11.51
2018-08-25T22:52:37.520Z,11.51
2018-08-25T22:55:08.108Z,11.53
2018-08-25T22:57:38.492Z,11.51
2018-08-25T23:00:09.085Z,11.40
2018-08-25T23:02:40.989Z,11.36
2018-08-25T23:05:11.451Z,11.36
2018-08-25T23:07:41.786Z,11.29
2018-08-25T23:10:12.287Z,11.31
2018-08-25T23:12:42.684Z,11.26
2018-08-25T23:15:13.187Z,11.19
2018-08-25T23:17:43.513Z,11.19
2018-08-25T23:20:13.980Z,11.27
2018-08-25T23:22:44.440Z,11.19
2018-08-25T23:25:15.032Z,11.32
2018-08-25T23:27:45.528Z,11.25
2018-08-25T23:30:15.799Z,11.33
2018-08-25T23:32:46.357Z,11.34
2018-08-25T23:35:16.847Z,11.30
2018-08-25T23:37:47.350Z,11.15
2018-08-25T23:40:17.607Z,11.17
2018-08-25T23:42:47.803Z,11.17
2018-08-25T23:45:18.283Z,11.05
2018-08-25T23:47:48.748Z,11.05
2018-08-25T23:50:19.243Z,11.14
2018-08-25T23:52:50.051Z,10.95
2018-08-25T23:55:20.422Z,10.94
2018-08-25T23:57:50.897Z,11.03
